sensor_id;sensor_type;location;lat;lon;timestamp;pressure;altitude;pressure_sealevel;temperature;humidity
26807;BME280;14380;49.910;6.792;2024-03-23T00:53:32;97988.44;;;10.51;100.00
26807;BME280;14380;49.910;6.792;2024-03-23T00:55:59;97978.59;;;10.40;100.00
26807;BME280;14380;49.910;6.792;2024-03-23T00:58:25;97980.19;;;10.69;100.00
26807;BME280;14380;49.910;6.792;2024-03-23T01:00:51;97980.84;;;10.60;100.00
26807;BME280;14380;49.910;6.792;2024-03-23T01:03:17;97981.88;;;10.57;100.00
26807;BME280;14380;49.910;6.792;2024-03-23T01:05:43;97982.50;;;10.48;100.00
26807;BME280;14380;49.910;6.792;2024-03-23T01:08:09;97975.88;;;10.68;100.00
26807;BME280;14380;49.910;6.792;2024-03-23T01:10:37;97981.75;;;10.46;100.00
26807;BME280;14380;49.910;6.792;2024-03-23T01:13:03;97984.00;;;10.65;100.00
26807;BME280;14380;49.910;6.792;2024-03-23T01:15:29;97993.25;;;10.45;100.00
26807;BME280;14380;49.910;6.792;2024-03-23T01:17:55;97978.75;;;10.78;100.00
26807;BME280;14380;49.910;6.792;2024-03-23T01:20:22;97966.50;;;10.77;100.00
26807;BME280;14380;49.910;6.792;2024-03-23T01:22:47;97969.75;;;10.67;100.00
26807;BME280;14380;49.910;6.792;2024-03-23T01:25:14;97967.75;;;10.71;100.00
26807;BME280;14380;49.910;6.792;2024-03-23T01:27:41;97964.69;;;10.64;100.00
26807;BME280;14380;49.910;6.792;2024-03-23T01:30:08;97952.13;;;10.81;100.00
26807;BME280;14380;49.910;6.792;2024-03-23T01:32:36;97956.84;;;10.63;100.00
26807;BME280;14380;49.910;6.792;2024-03-23T01:35:02;97959.72;;;10.60;100.00
26807;BME280;14380;49.910;6.792;2024-03-23T01:37:29;97962.59;;;10.69;100.00
26807;BME280;14380;49.910;6.792;2024-03-23T01:39:56;97965.22;;;10.69;100.00
26807;BME280;14380;49.910;6.792;2024-03-23T01:42:21;97977.06;;;10.77;100.00
26807;BME280;14380;49.910;6.792;2024-03-23T01:44:49;97972.72;;;10.76;100.00
26807;BME280;14380;49.910;6.792;2024-03-23T01:47:15;97968.84;;;10.28;100.00
26807;BME280;14380;49.910;6.792;2024-03-23T01:49:41;97961.00;;;10.26;100.00
26807;BME280;14380;49.910;6.792;2024-03-23T01:52:07;97950.38;;;10.28;100.00
26807;BME280;14380;49.910;6.792;2024-03-23T01:54:33;97927.00;;;10.62;100.00
26807;BME280;14380;49.910;6.792;2024-03-23T01:57:00;97909.66;;;10.71;100.00
26807;BME280;14380;49.910;6.792;2024-03-23T01:59:27;97906.50;;;10.66;100.00
26807;BME280;14380;49.910;6.792;2024-03-23T02:01:54;97911.47;;;10.70;100.00
26807;BME280;14380;49.910;6.792;2024-03-23T02:04:21;97912.50;;;10.68;100.00
26807;BME280;14380;49.910;6.792;2024-03-23T02:06:46;97922.75;;;10.47;100.00
26807;BME280;14380;49.910;6.792;2024-03-23T02:09:13;97917.28;;;10.50;100.00
26807;BME280;14380;49.910;6.792;2024-03-23T02:12:09;97909.34;;;10.63;100.00
26807;BME280;14380;49.910;6.792;2024-03-23T02:14:36;97921.72;;;10.49;100.00
26807;BME280;14380;49.910;6.792;2024-03-23T02:17:01;97929.31;;;10.41;100.00
26807;BME280;14380;49.910;6.792;2024-03-23T02:19:28;97926.44;;;10.31;100.00
26807;BME280;14380;49.910;6.792;2024-03-23T02:21:54;97943.50;;;10.25;100.00
26807;BME280;14380;49.910;6.792;2024-03-23T02:24:22;97944.41;;;9.99;100.00
26807;BME280;14380;49.910;6.792;2024-03-23T02:26:47;97960.75;;;9.63;100.00
26807;BME280;14380;49.910;6.792;2024-03-23T02:29:14;97967.28;;;9.98;100.00
26807;BME280;14380;49.910;6.792;2024-03-23T02:31:40;97962.16;;;9.55;100.00
26807;BME280;14380;49.910;6.792;2024-03-23T02:34:06;97970.25;;;9.24;100.00
26807;BME280;14380;49.910;6.792;2024-03-23T02:36:32;97990.69;;;9.48;100.00
26807;BME280;14380;49.910;6.792;2024-03-23T02:38:59;97994.69;;;9.68;100.00
26807;BME280;14380;49.910;6.792;2024-03-23T02:41:26;97996.00;;;9.04;100.00
26807;BME280;14380;49.910;6.792;2024-03-23T02:43:52;97990.00;;;9.17;100.00
26807;BME280;14380;49.910;6.792;2024-03-23T02:46:18;97985.00;;;8.98;100.00
26807;BME280;14380;49.910;6.792;2024-03-23T02:48:44;97961.72;;;9.33;100.00
26807;BME280;14380;49.910;6.792;2024-03-23T02:51:10;97976.78;;;9.46;100.00
26807;BME280;14380;49.910;6.792;2024-03-23T02:53:36;97992.63;;;9.02;100.00
26807;BME280;14380;49.910;6.792;2024-03-23T02:56:02;98019.59;;;8.77;100.00
26807;BME280;14380;49.910;6.792;2024-03-23T02:58:30;98023.84;;;8.80;100.00
26807;BME280;14380;49.910;6.792;2024-03-23T03:00:56;98026.91;;;8.72;100.00
26807;BME280;14380;49.910;6.792;2024-03-23T03:03:23;98028.88;;;8.68;100.00
26807;BME280;14380;49.910;6.792;2024-03-23T03:05:55;98028.59;;;8.73;100.00
26807;BME280;14380;49.910;6.792;2024-03-23T03:08:21;98020.13;;;8.68;100.00
26807;BME280;14380;49.910;6.792;2024-03-23T03:10:47;98015.75;;;8.97;100.00
26807;BME280;14380;49.910;6.792;2024-03-23T03:13:14;98013.75;;;8.72;100.00
26807;BME280;14380;49.910;6.792;2024-03-23T03:15:41;98019.69;;;8.75;100.00
26807;BME280;14380;49.910;6.792;2024-03-23T03:18:08;98029.44;;;8.43;100.00
26807;BME280;14380;49.910;6.792;2024-03-23T03:20:33;98028.59;;;8.73;100.00
26807;BME280;14380;49.910;6.792;2024-03-23T03:23:00;98035.91;;;8.53;100.00
26807;BME280;14380;49.910;6.792;2024-03-23T03:25:26;98034.53;;;8.46;100.00
26807;BME280;14380;49.910;6.792;2024-03-23T03:27:52;98033.69;;;8.76;100.00
26807;BME280;14380;49.910;6.792;2024-03-23T03:30:18;98039.19;;;8.57;100.00
26807;BME280;14380;49.910;6.792;2024-03-23T03:32:45;98043.38;;;8.75;100.00
26807;BME280;14380;49.910;6.792;2024-03-23T03:35:12;98046.00;;;8.75;100.00
26807;BME280;14380;49.910;6.792;2024-03-23T03:37:38;98052.09;;;8.76;100.00
26807;BME280;14380;49.910;6.792;2024-03-23T03:40:05;98049.22;;;8.95;100.00
26807;BME280;14380;49.910;6.792;2024-03-23T03:42:34;98059.16;;;8.45;100.00
26807;BME280;14380;49.910;6.792;2024-03-23T03:45:00;98071.34;;;8.62;100.00
26807;BME280;14380;49.910;6.792;2024-03-23T03:47:26;98065.63;;;8.70;100.00
26807;BME280;14380;49.910;6.792;2024-03-23T03:49:54;98066.25;;;8.59;100.00
26807;BME280;14380;49.910;6.792;2024-03-23T03:52:19;98068.50;;;8.34;100.00
26807;BME280;14380;49.910;6.792;2024-03-23T03:54:46;98070.28;;;8.50;100.00
26807;BME280;14380;49.910;6.792;2024-03-23T03:57:12;98057.28;;;8.47;100.00
26807;BME280;14380;49.910;6.792;2024-03-23T03:59:38;98076.72;;;8.60;100.00
26807;BME280;14380;49.910;6.792;2024-03-23T04:02:04;98083.03;;;8.26;100.00
26807;BME280;14380;49.910;6.792;2024-03-23T04:04:32;98072.59;;;8.24;100.00
26807;BME280;14380;49.910;6.792;2024-03-23T04:06:59;98077.97;;;8.07;100.00
26807;BME280;14380;49.910;6.792;2024-03-23T04:09:26;98073.59;;;8.38;100.00
26807;BME280;14380;49.910;6.792;2024-03-23T04:11:52;98083.13;;;7.92;100.00
26807;BME280;14380;49.910;6.792;2024-03-23T04:14:18;98087.41;;;7.95;100.00
26807;BME280;14380;49.910;6.792;2024-03-23T04:16:44;98087.91;;;7.85;100.00
26807;BME280;14380;49.910;6.792;2024-03-23T04:19:10;98091.44;;;8.00;100.00
26807;BME280;14380;49.910;6.792;2024-03-23T04:21:37;98103.66;;;8.01;100.00
26807;BME280;14380;49.910;6.792;2024-03-23T04:24:06;98115.53;;;8.09;100.00
26807;BME280;14380;49.910;6.792;2024-03-23T04:26:40;98122.72;;;7.73;100.00
26807;BME280;14380;49.910;6.792;2024-03-23T04:29:07;98121.19;;;8.01;100.00
26807;BME280;14380;49.910;6.792;2024-03-23T04:31:32;98119.88;;;7.94;100.00
26807;BME280;14380;49.910;6.792;2024-03-23T04:34:00;98120.09;;;8.37;100.00
26807;BME280;14380;49.910;6.792;2024-03-23T04:36:25;98116.53;;;8.06;100.00
26807;BME280;14380;49.910;6.792;2024-03-23T04:38:52;98107.56;;;8.10;100.00
26807;BME280;14380;49.910;6.792;2024-03-23T04:41:20;98116.31;;;7.95;100.00
26807;BME280;14380;49.910;6.792;2024-03-23T04:43:46;98126.88;;;8.09;100.00
26807;BME280;14380;49.910;6.792;2024-03-23T04:46:13;98132.94;;;7.62;100.00
26807;BME280;14380;49.910;6.792;2024-03-23T04:48:40;98127.72;;;7.78;100.00
26807;BME280;14380;49.910;6.792;2024-03-23T04:51:09;98122.56;;;8.08;100.00
26807;BME280;14380;49.910;6.792;2024-03-23T04:53:38;98135.63;;;8.10;100.00
26807;BME280;14380;49.910;6.792;2024-03-23T04:56:04;98144.72;;;7.54;100.00
26807;BME280;14380;49.910;6.792;2024-03-23T04:58:32;98153.44;;;7.88;100.00
26807;BME280;14380;49.910;6.792;2024-03-23T05:00:58;98144.47;;;7.93;100.00
26807;BME280;14380;49.910;6.792;2024-03-23T05:03:24;98145.56;;;8.04;100.00
26807;BME280;14380;49.910;6.792;2024-03-23T05:05:51;98139.09;;;7.78;100.00
26807;BME280;14380;49.910;6.792;2024-03-23T05:08:17;98137.13;;;7.66;100.00
26807;BME280;14380;49.910;6.792;2024-03-23T05:10:43;98129.41;;;7.79;100.00
26807;BME280;14380;49.910;6.792;2024-03-23T05:13:09;98142.81;;;7.90;100.00
26807;BME280;14380;49.910;6.792;2024-03-23T05:15:37;98153.13;;;7.61;100.00
26807;BME280;14380;49.910;6.792;2024-03-23T05:18:04;98156.78;;;7.74;100.00
26807;BME280;14380;49.910;6.792;2024-03-23T05:20:31;98164.78;;;7.55;100.00
26807;BME280;14380;49.910;6.792;2024-03-23T05:22:57;98169.94;;;7.41;100.00
26807;BME280;14380;49.910;6.792;2024-03-23T05:25:23;98175.66;;;7.49;100.00
26807;BME280;14380;49.910;6.792;2024-03-23T05:27:49;98170.91;;;7.56;100.00
26807;BME280;14380;49.910;6.792;2024-03-23T05:30:16;98177.94;;;7.55;100.00
26807;BME280;14380;49.910;6.792;2024-03-23T05:32:42;98172.75;;;7.71;100.00
26807;BME280;14380;49.910;6.792;2024-03-23T05:35:11;98173.25;;;7.44;100.00
26807;BME280;14380;49.910;6.792;2024-03-23T05:37:37;98172.31;;;7.46;100.00
26807;BME280;14380;49.910;6.792;2024-03-23T05:40:04;98192.19;;;7.34;100.00
26807;BME280;14380;49.910;6.792;2024-03-23T05:42:30;98192.59;;;7.59;100.00
26807;BME280;14380;49.910;6.792;2024-03-23T05:44:57;98200.41;;;7.61;100.00
26807;BME280;14380;49.910;6.792;2024-03-23T05:47:22;98200.84;;;7.36;100.00
26807;BME280;14380;49.910;6.792;2024-03-23T05:49:50;98201.16;;;7.29;100.00
26807;BME280;14380;49.910;6.792;2024-03-23T05:52:17;98207.31;;;7.28;100.00
26807;BME280;14380;49.910;6.792;2024-03-23T05:54:46;98220.00;;;7.03;100.00
26807;BME280;14380;49.910;6.792;2024-03-23T05:57:11;98221.38;;;6.92;100.00
26807;BME280;14380;49.910;6.792;2024-03-23T05:59:38;98233.34;;;6.98;100.00
26807;BME280;14380;49.910;6.792;2024-03-23T06:02:04;98227.47;;;6.93;100.00
26807;BME280;14380;49.910;6.792;2024-03-23T06:04:31;98238.03;;;7.09;100.00
26807;BME280;14380;49.910;6.792;2024-03-23T06:06:58;98236.25;;;6.92;100.00
26807;BME280;14380;49.910;6.792;2024-03-23T06:09:24;98248.31;;;7.31;100.00
26807;BME280;14380;49.910;6.792;2024-03-23T06:11:50;98246.41;;;7.17;100.00
26807;BME280;14380;49.910;6.792;2024-03-23T06:14:17;98248.72;;;7.23;100.00
26807;BME280;14380;49.910;6.792;2024-03-23T06:16:42;98250.72;;;7.01;100.00
26807;BME280;14380;49.910;6.792;2024-03-23T06:19:09;98260.06;;;7.41;100.00
26807;BME280;14380;49.910;6.792;2024-03-23T06:21:35;98266.38;;;7.02;100.00
26807;BME280;14380;49.910;6.792;2024-03-23T06:24:03;98260.06;;;7.41;100.00
26807;BME280;14380;49.910;6.792;2024-03-23T06:26:29;98259.13;;;7.07;100.00
26807;BME280;14380;49.910;6.792;2024-03-23T06:28:55;98266.00;;;7.10;100.00
26807;BME280;14380;49.910;6.792;2024-03-23T06:31:22;98266.25;;;7.40;100.00
26807;BME280;14380;49.910;6.792;2024-03-23T06:33:48;98286.50;;;7.21;100.00
26807;BME280;14380;49.910;6.792;2024-03-23T06:36:14;98276.63;;;7.26;100.00
26807;BME280;14380;49.910;6.792;2024-03-23T06:38:40;98279.53;;;7.37;100.00
26807;BME280;14380;49.910;6.792;2024-03-23T06:41:08;98280.91;;;7.09;100.00
26807;BME280;14380;49.910;6.792;2024-03-23T06:43:35;98278.56;;;7.40;100.00
26807;BME280;14380;49.910;6.792;2024-03-23T06:46:02;98283.47;;;7.64;100.00
26807;BME280;14380;49.910;6.792;2024-03-23T06:48:29;98288.34;;;7.19;100.00
26807;BME280;14380;49.910;6.792;2024-03-23T06:50:55;98293.38;;;7.41;100.00
26807;BME280;14380;49.910;6.792;2024-03-23T06:53:22;98289.75;;;7.07;100.00
26807;BME280;14380;49.910;6.792;2024-03-23T06:55:50;98292.28;;;7.27;100.00
26807;BME280;14380;49.910;6.792;2024-03-23T06:58:20;98294.22;;;7.41;100.00
26807;BME280;14380;49.910;6.792;2024-03-23T07:00:46;98304.09;;;7.19;100.00
26807;BME280;14380;49.910;6.792;2024-03-23T07:03:12;98300.34;;;7.42;100.00
26807;BME280;14380;49.910;6.792;2024-03-23T07:05:38;98303.34;;;7.52;100.00
26807;BME280;14380;49.910;6.792;2024-03-23T07:08:05;98313.94;;;7.68;100.00
26807;BME280;14380;49.910;6.792;2024-03-23T07:10:30;98315.63;;;7.69;100.00
26807;BME280;14380;49.910;6.792;2024-03-23T07:12:57;98321.09;;;7.47;100.00
26807;BME280;14380;49.910;6.792;2024-03-23T07:15:24;98327.00;;;7.69;100.00
26807;BME280;14380;49.910;6.792;2024-03-23T07:17:51;98327.38;;;7.79;100.00
26807;BME280;14380;49.910;6.792;2024-03-23T07:20:16;98328.13;;;7.99;100.00
26807;BME280;14380;49.910;6.792;2024-03-23T07:22:45;98325.72;;;7.94;100.00
26807;BME280;14380;49.910;6.792;2024-03-23T07:25:10;98323.19;;;7.93;100.00
26807;BME280;14380;49.910;6.792;2024-03-23T07:27:37;98318.41;;;7.66;100.00
26807;BME280;14380;49.910;6.792;2024-03-23T07:30:03;98325.47;;;7.99;100.00
26807;BME280;14380;49.910;6.792;2024-03-23T07:32:31;98331.31;;;7.70;100.00
26807;BME280;14380;49.910;6.792;2024-03-23T07:34:56;98326.41;;;8.15;100.00
26807;BME280;14380;49.910;6.792;2024-03-23T07:37:23;98320.94;;;8.36;100.00
26807;BME280;14380;49.910;6.792;2024-03-23T07:39:49;98323.13;;;8.28;100.00
26807;BME280;14380;49.910;6.792;2024-03-23T07:42:15;98332.75;;;8.45;100.00
26807;BME280;14380;49.910;6.792;2024-03-23T07:44:41;98337.28;;;8.25;100.00
26807;BME280;14380;49.910;6.792;2024-03-23T07:47:07;98333.47;;;8.65;100.00
26807;BME280;14380;49.910;6.792;2024-03-23T07:49:34;98333.47;;;8.65;100.00
26807;BME280;14380;49.910;6.792;2024-03-23T07:52:01;98347.94;;;8.89;100.00
26807;BME280;14380;49.910;6.792;2024-03-23T07:54:26;98344.38;;;8.74;100.00
26807;BME280;14380;49.910;6.792;2024-03-23T07:56:53;98338.81;;;9.11;100.00
26807;BME280;14380;49.910;6.792;2024-03-23T07:59:20;98354.63;;;8.63;100.00
26807;BME280;14380;49.910;6.792;2024-03-23T08:01:46;98348.09;;;9.02;100.00
26807;BME280;14380;49.910;6.792;2024-03-23T08:04:12;98340.41;;;9.46;100.00
26807;BME280;14380;49.910;6.792;2024-03-23T08:06:40;98345.72;;;9.91;98.06
26807;BME280;14380;49.910;6.792;2024-03-23T08:09:05;98335.97;;;9.77;97.22
26807;BME280;14380;49.910;6.792;2024-03-23T08:11:32;98351.03;;;9.75;97.03
26807;BME280;14380;49.910;6.792;2024-03-23T08:13:59;98346.22;;;9.20;96.09
26807;BME280;14380;49.910;6.792;2024-03-23T08:16:26;98337.25;;;9.55;95.00
26807;BME280;14380;49.910;6.792;2024-03-23T08:18:52;98346.13;;;10.14;92.38
26807;BME280;14380;49.910;6.792;2024-03-23T08:21:20;98338.88;;;10.03;93.13
26807;BME280;14380;49.910;6.792;2024-03-23T08:23:47;98343.81;;;9.78;92.08
26807;BME280;14380;49.910;6.792;2024-03-23T08:26:15;98349.91;;;9.79;92.37
26807;BME280;14380;49.910;6.792;2024-03-23T08:28:41;98350.66;;;9.50;92.35
26807;BME280;14380;49.910;6.792;2024-03-23T08:31:09;98352.56;;;10.24;91.20
26807;BME280;14380;49.910;6.792;2024-03-23T08:33:35;98345.34;;;10.56;87.03
26807;BME280;14380;49.910;6.792;2024-03-23T08:36:03;98338.69;;;10.64;91.40
26807;BME280;14380;49.910;6.792;2024-03-23T08:38:29;98349.56;;;10.45;85.80
26807;BME280;14380;49.910;6.792;2024-03-23T08:40:59;98347.03;;;10.58;86.44
26807;BME280;14380;49.910;6.792;2024-03-23T08:43:25;98343.91;;;10.51;86.22
26807;BME280;14380;49.910;6.792;2024-03-23T08:45:51;98336.34;;;10.45;86.67
26807;BME280;14380;49.910;6.792;2024-03-23T08:48:17;98336.06;;;10.64;87.17
26807;BME280;14380;49.910;6.792;2024-03-23T08:50:45;98332.59;;;11.33;86.32
26807;BME280;14380;49.910;6.792;2024-03-23T08:53:12;98337.94;;;10.91;81.50
26807;BME280;14380;49.910;6.792;2024-03-23T08:55:37;98333.50;;;10.19;86.31
26807;BME280;14380;49.910;6.792;2024-03-23T08:58:05;98349.44;;;10.32;85.89
26807;BME280;14380;49.910;6.792;2024-03-23T09:00:33;98363.47;;;10.18;86.31
26807;BME280;14380;49.910;6.792;2024-03-23T09:03:00;98399.41;;;8.95;88.69
26807;BME280;14380;49.910;6.792;2024-03-23T09:05:27;98439.22;;;7.85;93.00
26807;BME280;14380;49.910;6.792;2024-03-23T09:07:55;98467.00;;;6.77;96.62
26807;BME280;14380;49.910;6.792;2024-03-23T09:10:21;98457.13;;;6.00;100.00
26807;BME280;14380;49.910;6.792;2024-03-23T09:12:48;98441.31;;;5.80;100.00
26807;BME280;14380;49.910;6.792;2024-03-23T09:15:15;98417.19;;;5.94;100.00
26807;BME280;14380;49.910;6.792;2024-03-23T09:17:42;98396.84;;;6.01;100.00
26807;BME280;14380;49.910;6.792;2024-03-23T09:20:08;98383.53;;;6.06;100.00
26807;BME280;14380;49.910;6.792;2024-03-23T09:22:35;98378.22;;;6.47;100.00
26807;BME280;14380;49.910;6.792;2024-03-23T09:25:00;98378.00;;;6.33;100.00
26807;BME280;14380;49.910;6.792;2024-03-23T09:27:27;98379.84;;;6.31;100.00
26807;BME280;14380;49.910;6.792;2024-03-23T09:29:52;98385.41;;;6.23;100.00
26807;BME280;14380;49.910;6.792;2024-03-23T09:32:20;98388.38;;;6.36;100.00
26807;BME280;14380;49.910;6.792;2024-03-23T09:34:46;98377.97;;;6.14;100.00
26807;BME280;14380;49.910;6.792;2024-03-23T09:37:12;98373.22;;;6.62;100.00
26807;BME280;14380;49.910;6.792;2024-03-23T09:39:38;98372.81;;;6.71;100.00
26807;BME280;14380;49.910;6.792;2024-03-23T09:42:06;98369.75;;;6.80;100.00
26807;BME280;14380;49.910;6.792;2024-03-23T09:44:31;98372.66;;;7.30;100.00
26807;BME280;14380;49.910;6.792;2024-03-23T09:46:58;98370.28;;;7.25;100.00
26807;BME280;14380;49.910;6.792;2024-03-23T09:49:25;98356.50;;;7.74;100.00
26807;BME280;14380;49.910;6.792;2024-03-23T09:51:52;98362.84;;;7.88;100.00
26807;BME280;14380;49.910;6.792;2024-03-23T09:54:18;98347.22;;;8.54;100.00
26807;BME280;14380;49.910;6.792;2024-03-23T09:56:47;98347.34;;;8.17;100.00
26807;BME280;14380;49.910;6.792;2024-03-23T09:59:12;98335.94;;;8.68;100.00
26807;BME280;14380;49.910;6.792;2024-03-23T10:01:39;98327.34;;;9.59;100.00
26807;BME280;14380;49.910;6.792;2024-03-23T10:04:05;98325.72;;;9.72;100.00
26807;BME280;14380;49.910;6.792;2024-03-23T10:06:33;98326.94;;;9.81;99.54
26807;BME280;14380;49.910;6.792;2024-03-23T10:08:59;98322.31;;;10.15;99.11
26807;BME280;14380;49.910;6.792;2024-03-23T10:11:26;98320.16;;;10.51;96.47
26807;BME280;14380;49.910;6.792;2024-03-23T10:13:53;98314.47;;;10.71;92.34
26807;BME280;14380;49.910;6.792;2024-03-23T10:16:23;98311.16;;;10.82;89.71
26807;BME280;14380;49.910;6.792;2024-03-23T10:18:49;98304.69;;;11.01;88.13
26807;BME280;14380;49.910;6.792;2024-03-23T10:21:16;98305.94;;;11.23;88.44
26807;BME280;14380;49.910;6.792;2024-03-23T10:23:44;98292.13;;;11.32;90.31
26807;BME280;14380;49.910;6.792;2024-03-23T10:26:17;98288.59;;;11.72;83.26
26807;BME280;14380;49.910;6.792;2024-03-23T10:28:54;98290.25;;;11.47;81.63
26807;BME280;14380;49.910;6.792;2024-03-23T10:31:22;98286.31;;;11.40;77.02
26807;BME280;14380;49.910;6.792;2024-03-23T10:33:49;98291.31;;;11.44;76.40
26807;BME280;14380;49.910;6.792;2024-03-23T10:36:19;98285.22;;;11.29;72.12
26807;BME280;14380;49.910;6.792;2024-03-23T10:38:47;98276.50;;;11.55;76.97
26807;BME280;14380;49.910;6.792;2024-03-23T10:41:15;98274.41;;;11.73;74.12
26807;BME280;14380;49.910;6.792;2024-03-23T10:43:43;98269.28;;;11.31;71.13
26807;BME280;14380;49.910;6.792;2024-03-23T10:46:11;98270.56;;;10.98;71.67
26807;BME280;14380;49.910;6.792;2024-03-23T10:48:36;98264.38;;;11.78;76.01
26807;BME280;14380;49.910;6.792;2024-03-23T10:51:04;98273.94;;;12.07;71.89
26807;BME280;14380;49.910;6.792;2024-03-23T10:53:33;98278.25;;;12.20;72.37
26807;BME280;14380;49.910;6.792;2024-03-23T10:56:04;98334.16;;;10.37;73.19
26807;BME280;14380;49.910;6.792;2024-03-23T10:58:31;98356.75;;;9.67;80.08
26807;BME280;14380;49.910;6.792;2024-03-23T11:00:59;98402.97;;;8.09;92.81
26807;BME280;14380;49.910;6.792;2024-03-23T11:03:34;98411.53;;;7.04;100.00
26807;BME280;14380;49.910;6.792;2024-03-23T11:06:02;98425.59;;;6.63;100.00
26807;BME280;14380;49.910;6.792;2024-03-23T11:08:35;98420.41;;;6.01;100.00
26807;BME280;14380;49.910;6.792;2024-03-23T11:11:17;98427.16;;;6.07;100.00
26807;BME280;14380;49.910;6.792;2024-03-23T11:13:43;98418.19;;;6.13;100.00
26807;BME280;14380;49.910;6.792;2024-03-23T11:16:16;98414.34;;;6.61;100.00
26807;BME280;14380;49.910;6.792;2024-03-23T11:18:42;98396.22;;;6.36;100.00
26807;BME280;14380;49.910;6.792;2024-03-23T11:21:10;98385.53;;;6.40;100.00
26807;BME280;14380;49.910;6.792;2024-03-23T11:23:36;98373.22;;;6.62;100.00
26807;BME280;14380;49.910;6.792;2024-03-23T11:26:07;98362.44;;;7.96;100.00
26807;BME280;14380;49.910;6.792;2024-03-23T11:28:34;98364.63;;;8.56;100.00
26807;BME280;14380;49.910;6.792;2024-03-23T11:31:00;98385.63;;;9.06;100.00
26807;BME280;14380;49.910;6.792;2024-03-23T11:33:26;98372.81;;;9.32;100.00
26807;BME280;14380;49.910;6.792;2024-03-23T11:35:54;98382.59;;;8.82;100.00
26807;BME280;14380;49.910;6.792;2024-03-23T11:38:19;98369.00;;;9.68;100.00
26807;BME280;14380;49.910;6.792;2024-03-23T11:40:47;98364.22;;;9.44;100.00
26807;BME280;14380;49.910;6.792;2024-03-23T11:43:14;98360.31;;;8.55;100.00
26807;BME280;14380;49.910;6.792;2024-03-23T11:45:44;98371.63;;;8.73;100.00
26807;BME280;14380;49.910;6.792;2024-03-23T11:48:11;98366.47;;;9.04;100.00
26807;BME280;14380;49.910;6.792;2024-03-23T11:50:39;98367.44;;;9.33;100.00
26807;BME280;14380;49.910;6.792;2024-03-23T11:53:07;98366.88;;;9.12;100.00
26807;BME280;14380;49.910;6.792;2024-03-23T11:55:39;98383.59;;;8.79;100.00
26807;BME280;14380;49.910;6.792;2024-03-23T11:58:05;98387.91;;;8.80;100.00
26807;BME280;14380;49.910;6.792;2024-03-23T12:00:32;98371.91;;;8.33;100.00
26807;BME280;14380;49.910;6.792;2024-03-23T12:03:01;98393.84;;;7.99;100.00
26807;BME280;14380;49.910;6.792;2024-03-23T12:05:28;98383.81;;;7.89;100.00
26807;BME280;14380;49.910;6.792;2024-03-23T12:07:54;98352.56;;;7.83;100.00
26807;BME280;14380;49.910;6.792;2024-03-23T12:10:21;98342.75;;;8.04;100.00
26807;BME280;14380;49.910;6.792;2024-03-23T12:13:00;98342.28;;;8.14;100.00
26807;BME280;14380;49.910;6.792;2024-03-23T12:15:27;98344.63;;;7.67;100.00
26807;BME280;14380;49.910;6.792;2024-03-23T12:18:07;98336.41;;;8.09;100.00
26807;BME280;14380;49.910;6.792;2024-03-23T12:20:33;98336.00;;;7.99;100.00
26807;BME280;14380;49.910;6.792;2024-03-23T12:23:05;98322.94;;;8.15;100.00
26807;BME280;14380;49.910;6.792;2024-03-23T12:25:32;98309.50;;;9.17;100.00
26807;BME280;14380;49.910;6.792;2024-03-23T12:27:59;98314.13;;;9.14;99.03
26807;BME280;14380;49.910;6.792;2024-03-23T12:30:25;98318.97;;;9.52;100.00
26807;BME280;14380;49.910;6.792;2024-03-23T12:32:51;98310.06;;;9.69;100.00
26807;BME280;14380;49.910;6.792;2024-03-23T12:35:19;98305.56;;;9.41;95.87
26807;BME280;14380;49.910;6.792;2024-03-23T12:37:44;98290.25;;;9.47;95.51
26807;BME280;14380;49.910;6.792;2024-03-23T12:40:11;98292.94;;;9.76;96.03
26807;BME280;14380;49.910;6.792;2024-03-23T12:42:36;98289.00;;;9.38;93.15
26807;BME280;14380;49.910;6.792;2024-03-23T12:45:04;98296.94;;;9.84;96.90
26807;BME280;14380;49.910;6.792;2024-03-23T12:47:30;98290.81;;;9.52;95.42
26807;BME280;14380;49.910;6.792;2024-03-23T12:49:56;98287.59;;;10.21;94.60
26807;BME280;14380;49.910;6.792;2024-03-23T12:52:24;98307.97;;;10.19;91.70
26807;BME280;14380;49.910;6.792;2024-03-23T12:54:54;98300.56;;;9.66;96.26
26807;BME280;14380;49.910;6.792;2024-03-23T12:57:22;98301.81;;;8.82;87.33
26807;BME280;14380;49.910;6.792;2024-03-23T12:59:48;98303.50;;;8.17;84.08
26807;BME280;14380;49.910;6.792;2024-03-23T13:02:17;98293.41;;;8.10;86.44
26807;BME280;14380;49.910;6.792;2024-03-23T13:04:43;98298.72;;;8.42;89.35
26807;BME280;14380;49.910;6.792;2024-03-23T13:07:09;98284.25;;;7.83;91.76
26807;BME280;14380;49.910;6.792;2024-03-23T13:09:37;98279.66;;;7.87;94.97
26807;BME280;14380;49.910;6.792;2024-03-23T13:12:03;98280.00;;;8.14;91.94
26807;BME280;14380;49.910;6.792;2024-03-23T13:14:29;98271.34;;;8.28;96.05
26807;BME280;14380;49.910;6.792;2024-03-23T13:16:56;98274.00;;;8.28;95.30
26807;BME280;14380;49.910;6.792;2024-03-23T13:19:23;98263.66;;;8.41;96.71
26807;BME280;14380;49.910;6.792;2024-03-23T13:21:52;98262.72;;;8.42;99.75
26807;BME280;14380;49.910;6.792;2024-03-23T13:24:21;98253.41;;;8.85;100.00
26807;BME280;14380;49.910;6.792;2024-03-23T13:26:49;98253.72;;;9.41;98.69
26807;BME280;14380;49.910;6.792;2024-03-23T13:29:16;98269.84;;;9.20;99.82
26807;BME280;14380;49.910;6.792;2024-03-23T13:31:41;98264.88;;;9.00;99.26
26807;BME280;14380;49.910;6.792;2024-03-23T13:34:08;98257.06;;;9.29;98.18
26807;BME280;14380;49.910;6.792;2024-03-23T13:36:33;98266.09;;;9.25;97.79
26807;BME280;14380;49.910;6.792;2024-03-23T13:39:01;98255.50;;;9.41;96.73
26807;BME280;14380;49.910;6.792;2024-03-23T13:41:27;98266.75;;;8.98;100.00
26807;BME280;14380;49.910;6.792;2024-03-23T13:43:55;98281.94;;;9.08;100.00
26807;BME280;14380;49.910;6.792;2024-03-23T13:46:20;98310.84;;;8.44;97.81
26807;BME280;14380;49.910;6.792;2024-03-23T13:48:47;98334.63;;;7.56;98.50
26807;BME280;14380;49.910;6.792;2024-03-23T13:51:12;98335.50;;;6.83;100.00